Bookmark and Share
Track history (hours):
 

Arthur Maersk

Last reported at 2014-Apr-12 13:06 UTC. Time now 2014-Apr-19 14:45 UTC.
Position N 36°50' W 075°50'.

Length 352 m; draft 11.2 m.

Type: Cargo ship. MMSI: 220221000.

NotesDate/timePositionNaut miles runAvg speedWind from/ knotsBaromVisibWave heightAir tempDewpointWater temp
2014-Apr-12 13:06N 36°50' W 075°50'5 9.4
2014-Apr-12 12:33N 36°54' W 075°55'1110.9
2014-Apr-12 11:33N 36°59' W 076°07'1110.8
2014-Apr-12 10:33N 36°57' W 076°20'5 4.6
2014-Apr-12 09:33N 36°52' W 076°21'0 0.0
2014-Apr-12 08:33N 36°52' W 076°21'0 0.0
2014-Apr-12 07:21N 36°52' W 076°21'0 0.0
2014-Apr-12 06:33N 36°52' W 076°21'0 0.0
2014-Apr-12 05:33N 36°52' W 076°21'0 0.0
2014-Apr-12 04:30N 36°52' W 076°21'0 0.0
2014-Apr-12 03:33N 36°52' W 076°21'0 0.0
2014-Apr-12 02:33N 36°52' W 076°21'0 0.0
2014-Apr-12 01:33N 36°52' W 076°21'0 0.0
2014-Apr-12 00:33N 36°52' W 076°21'0 0.0
2014-Apr-11 23:30N 36°52' W 076°21'0 0.0
2014-Apr-11 22:33N 36°52' W 076°21'0 0.0
2014-Apr-11 21:27N 36°52' W 076°21'0 0.0
2014-Apr-11 20:33N 36°52' W 076°21'0 0.0
2014-Apr-11 19:33N 36°52' W 076°21'0 0.0
2014-Apr-11 18:33N 36°52' W 076°21'0 0.0
2014-Apr-11 17:33N 36°52' W 076°21'0 0.0
2014-Apr-11 16:33N 36°52' W 076°21'0 0.0
2014-Apr-11 15:33N 36°52' W 076°21'3 2.8
2014-Apr-11 14:33N 36°55' W 076°20'9 9.1
2014-Apr-11 13:33N 36°59' W 076°10'1111.0
2014-Apr-11 12:33N 36°56' W 075°57'9 9.5
2014-Apr-11 11:33N 36°51' W 075°48'1711.1
2014-Apr-11 10:03N 36°54' W 075°27'14021.6
2014-Apr-11 03:33N 38°55' W 073°58'2222.2
2014-Apr-11 02:33N 39°17' W 073°53'2222.0
2014-Apr-11 01:33N 39°39' W 073°52'2019.7
2014-Apr-11 00:34N 39°58' W 073°51'1414.4
2014-Apr-10 23:33N 40°13' W 073°50'10 9.9
2014-Apr-10 22:33N 40°22' W 073°49'9 8.6
2014-Apr-10 21:33N 40°29' W 073°55'1111.0
2014-Apr-10 20:33N 40°39' W 074°04'4 3.6
2014-Apr-10 19:27N 40°40' W 074°08'0 0.4
2014-Apr-10 18:29N 40°40' W 074°09'0 0.0
2014-Apr-10 17:32N 40°40' W 074°09'0 0.0
2014-Apr-10 16:20N 40°40' W 074°09'0 0.0
2014-Apr-10 15:32N 40°40' W 074°09'0 0.0
2014-Apr-10 14:24N 40°40' W 074°09'0 0.0
2014-Apr-10 13:33N 40°40' W 074°09'0 0.0
2014-Apr-10 12:33N 40°40' W 074°09'0 0.0
2014-Apr-10 11:12N 40°40' W 074°09'0 0.0
2014-Apr-10 10:33N 40°40' W 074°09'0 0.0
2014-Apr-10 09:33N 40°40' W 074°09'0 0.0
2014-Apr-10 08:33N 40°40' W 074°09'0 0.0
2014-Apr-10 07:31N 40°40' W 074°09'0 0.0
2014-Apr-10 06:31N 40°40' W 074°09'0 0.0
2014-Apr-10 05:19N 40°40' W 074°09'0 0.0
2014-Apr-10 04:32N 40°40' W 074°09'0 0.0
2014-Apr-10 03:32N 40°40' W 074°09'0 0.0
2014-Apr-10 02:32N 40°40' W 074°09'0 0.0
2014-Apr-10 01:23N 40°40' W 074°09'0 0.0
2014-Apr-10 00:22N 40°40' W 074°09'0 0.0
2014-Apr-09 23:31N 40°40' W 074°09'0 0.0
2014-Apr-09 22:33N 40°40' W 074°09'0 0.0
2014-Apr-09 21:27N 40°40' W 074°09'0 0.0
2014-Apr-09 20:32N 40°40' W 074°09'0 0.0
2014-Apr-09 19:32N 40°40' W 074°09'0 0.0
2014-Apr-09 18:29N 40°40' W 074°09'0 0.0
2014-Apr-09 17:32N 40°40' W 074°09'0 0.0
2014-Apr-09 16:32N 40°40' W 074°09'0 0.0
2014-Apr-09 15:32N 40°40' W 074°09'0 0.0
2014-Apr-09 14:32N 40°40' W 074°09'0 0.0
2014-Apr-09 13:32N 40°40' W 074°09'0 0.0
2014-Apr-09 12:32N 40°40' W 074°09'0 0.0
2014-Apr-09 11:32N 40°40' W 074°09'0 0.0
2014-Apr-09 10:23N 40°40' W 074°09'0 0.0
2014-Apr-09 09:32N 40°40' W 074°09'0 0.0
2014-Apr-09 08:32N 40°40' W 074°09'0 0.0
2014-Apr-09 07:33N 40°40' W 074°09'0 0.0
2014-Apr-09 06:33N 40°40' W 074°09'0 0.0
2014-Apr-09 05:31N 40°40' W 074°09'0 0.0
2014-Apr-09 03:33N 40°40' W 074°09'0 0.0
2014-Apr-09 02:33N 40°40' W 074°09'0 0.0
2014-Apr-09 01:30N 40°40' W 074°09'0 0.0
2014-Apr-09 00:30N 40°40' W 074°09'0 0.0
2014-Apr-08 23:33N 40°40' W 074°09'0 0.0
2014-Apr-08 22:33N 40°40' W 074°09'0 0.0
2014-Apr-08 21:30N 40°40' W 074°09'0 0.0
2014-Apr-08 20:33N 40°40' W 074°09'0 0.0
2014-Apr-08 19:06N 40°40' W 074°09'0 0.0
2014-Apr-08 18:30N 40°40' W 074°09'0 0.1
2014-Apr-08 17:31N 40°40' W 074°09'4 3.9
2014-Apr-08 16:34N 40°39' W 074°04'4 1.9
2014-Apr-08 14:16N 40°35' W 074°02'0 0.0
2014-Apr-08 13:13N 40°35' W 074°02'0 0.0
2014-Apr-08 12:31N 40°35' W 074°02'0 0.1
2014-Apr-08 11:25N 40°35' W 074°02'0 0.3
2014-Apr-08 10:32N 40°35' W 074°02'9410.2
2014-Apr-08 01:20N 40°31' W 071°58'1417.9
2014-Apr-08 00:33N 40°32' W 071°40'4017.8
2014-Apr-07 22:18N 40°32' W 070°47'1317.7
2014-Apr-07 21:33N 40°33' W 070°30'11 8.1
2014-Apr-07 20:14N 40°33' W 070°16'812.2
2014-Apr-07 19:33N 40°34' W 070°05'4120.4
2014-Apr-07 17:33N 40°34' W 069°11'2120.7
2014-Apr-07 16:31N 40°33' W 068°43'  

Dump ship's entire track history

sailing weather and tide predictions

Arthur Maersk — OXJH2 — position and weather